createdAt,value
2019-03-30T00:01:44.636Z,5.47
2019-03-30T00:04:36.686Z,6.37
2019-03-30T00:07:20.853Z,6.40
2019-03-30T00:09:58.856Z,6.97
2019-03-30T00:12:33.108Z,6.80
2019-03-30T00:15:53.377Z,6.25
2019-03-30T00:18:30.510Z,7.25
2019-03-30T00:20:59.697Z,6.00
2019-03-30T00:23:36.144Z,6.07
2019-03-30T00:26:08.000Z,6.87
2019-03-30T00:28:44.483Z,7.25
2019-03-30T00:31:13.534Z,5.90
2019-03-30T00:33:43.331Z,6.87
2019-03-30T00:36:22.134Z,6.30
2019-03-30T00:38:58.254Z,6.95
2019-03-30T00:41:28.386Z,7.33
2019-03-30T00:44:00.524Z,6.75
2019-03-30T00:46:34.493Z,7.62
2019-03-30T00:49:14.340Z,7.80
2019-03-30T00:51:48.224Z,7.40
2019-03-30T00:54:25.158Z,7.30
2019-03-30T00:56:54.316Z,7.40
2019-03-30T00:59:23.601Z,6.37
2019-03-30T01:01:52.772Z,7.10
2019-03-30T01:04:21.977Z,8.00
2019-03-30T01:06:51.150Z,6.65
2019-03-30T01:09:20.327Z,6.47
2019-03-30T01:11:49.837Z,7.22
2019-03-30T01:14:19.005Z,6.97
2019-03-30T01:16:48.163Z,6.50
2019-03-30T01:19:17.353Z,6.83
2019-03-30T01:21:46.598Z,6.35
2019-03-30T01:24:15.875Z,6.90
2019-03-30T01:26:45.114Z,6.37
2019-03-30T01:29:14.299Z,7.05
2019-03-30T01:31:43.461Z,7.87
2019-03-30T01:34:12.687Z,7.15
2019-03-30T01:36:41.830Z,6.45
2019-03-30T01:39:11.077Z,7.28
2019-03-30T01:41:40.338Z,7.22
2019-03-30T01:44:09.575Z,7.15
2019-03-30T01:46:38.792Z,7.92
2019-03-30T01:49:07.940Z,7.30
2019-03-30T01:51:37.140Z,8.48
2019-03-30T01:54:06.345Z,7.00
2019-03-30T01:56:35.631Z,6.92
2019-03-30T01:59:05.053Z,7.60
2019-03-30T02:01:34.391Z,7.72
2019-03-30T02:04:03.686Z,7.75
2019-03-30T02:06:33.069Z,7.00
2019-03-30T02:09:02.339Z,6.95
2019-03-30T02:11:31.655Z,7.78
2019-03-30T02:14:00.904Z,6.72
2019-03-30T02:16:30.180Z,8.13
2019-03-30T02:18:59.537Z,6.92
2019-03-30T02:21:28.800Z,7.17
2019-03-30T02:23:58.068Z,7.97
2019-03-30T02:26:27.398Z,7.25
2019-03-30T02:28:56.667Z,8.00
2019-03-30T02:31:26.016Z,8.35
2019-03-30T02:33:55.287Z,9.13
2019-03-30T02:36:24.642Z,8.13
2019-03-30T02:38:53.977Z,7.95
2019-03-30T02:41:23.254Z,7.60
2019-03-30T02:43:52.523Z,7.80
2019-03-30T02:46:21.831Z,8.55
2019-03-30T02:48:51.101Z,7.45
2019-03-30T02:51:20.462Z,7.53
2019-03-30T02:53:49.732Z,7.90
2019-03-30T02:56:19.118Z,9.03
2019-03-30T02:58:48.426Z,7.90
2019-03-30T03:01:17.714Z,7.90
2019-03-30T03:03:47.034Z,8.00
2019-03-30T03:06:16.311Z,8.00
2019-03-30T03:08:45.607Z,8.15
2019-03-30T03:11:14.970Z,8.40
2019-03-30T03:13:44.221Z,8.90
2019-03-30T03:16:13.502Z,8.65
2019-03-30T03:18:42.842Z,8.30
2019-03-30T03:21:12.193Z,8.88
2019-03-30T03:23:41.467Z,7.50
2019-03-30T03:26:10.837Z,8.53
2019-03-30T03:28:40.092Z,9.63
2019-03-30T03:31:09.383Z,7.30
2019-03-30T03:33:38.753Z,7.62
2019-03-30T03:36:08.058Z,7.87
2019-03-30T03:38:37.317Z,8.75
2019-03-30T03:41:06.682Z,8.40
2019-03-30T03:43:36.108Z,7.78
2019-03-30T03:46:05.485Z,7.80
2019-03-30T03:48:34.720Z,8.40
2019-03-30T03:51:05.303Z,8.08
2019-03-30T03:53:35.662Z,9.00
2019-03-30T03:56:06.076Z,8.95
2019-03-30T03:58:36.450Z,9.13
2019-03-30T04:01:05.829Z,8.38
2019-03-30T04:03:35.397Z,9.45
2019-03-30T04:06:06.754Z,8.93
2019-03-30T04:08:36.658Z,7.83
2019-03-30T04:11:06.003Z,9.08
2019-03-30T04:13:35.296Z,8.10
2019-03-30T04:16:04.605Z,8.58
2019-03-30T04:18:33.950Z,8.38
2019-03-30T04:21:03.219Z,7.47
2019-03-30T04:23:32.515Z,8.08
2019-03-30T04:26:01.794Z,8.20
2019-03-30T04:28:31.102Z,8.25
2019-03-30T04:31:00.684Z,8.15
2019-03-30T04:33:30.055Z,8.55
2019-03-30T04:35:59.311Z,9.43
2019-03-30T04:38:28.581Z,9.23
2019-03-30T04:40:57.841Z,8.40
2019-03-30T04:43:27.142Z,8.50
2019-03-30T04:45:56.404Z,8.18
2019-03-30T04:48:29.336Z,8.78
2019-03-30T04:50:56.687Z,7.62
2019-03-30T04:53:26.049Z,7.95
2019-03-30T04:55:55.405Z,8.80
2019-03-30T04:58:24.747Z,7.75
2019-03-30T05:00:54.130Z,9.00
2019-03-30T05:03:23.394Z,8.58
2019-03-30T05:05:52.754Z,7.78
2019-03-30T05:08:22.082Z,8.98
2019-03-30T05:10:51.408Z,8.28
2019-03-30T05:13:20.688Z,8.45
2019-03-30T05:15:49.951Z,8.25
2019-03-30T05:18:19.283Z,8.15
2019-03-30T05:20:48.591Z,8.75
2019-03-30T05:23:17.905Z,10.08
2019-03-30T05:25:47.271Z,7.53
2019-03-30T05:28:16.593Z,8.65
2019-03-30T05:30:48.151Z,9.33
2019-03-30T05:33:17.420Z,8.63
2019-03-30T05:35:46.785Z,9.93
2019-03-30T05:38:16.146Z,10.50
2019-03-30T05:40:45.415Z,10.23
2019-03-30T05:43:14.686Z,9.13
2019-03-30T05:45:43.917Z,8.85
2019-03-30T05:48:13.079Z,9.20
2019-03-30T05:50:42.368Z,8.68
2019-03-30T05:53:11.561Z,8.75
2019-03-30T05:55:40.747Z,9.10
2019-03-30T05:58:10.259Z,8.78
2019-03-30T06:00:39.507Z,8.00
2019-03-30T06:03:10.253Z,9.20
2019-03-30T06:05:39.443Z,9.65
2019-03-30T06:08:08.622Z,8.93
2019-03-30T06:10:39.009Z,8.80
2019-03-30T06:13:08.400Z,9.88
2019-03-30T06:15:37.597Z,10.40
2019-03-30T06:18:06.775Z,8.50
2019-03-30T06:20:35.932Z,9.35
2019-03-30T06:23:05.142Z,10.65
2019-03-30T06:25:34.413Z,9.28
2019-03-30T06:28:03.668Z,9.48
2019-03-30T06:30:32.928Z,9.78
2019-03-30T06:33:02.160Z,9.75
2019-03-30T06:35:31.462Z,10.45
2019-03-30T06:38:00.650Z,12.28
2019-03-30T06:40:29.843Z,10.25
2019-03-30T06:43:02.026Z,11.33
2019-03-30T06:45:31.225Z,9.65
2019-03-30T06:48:00.393Z,11.70
2019-03-30T06:50:31.618Z,11.10
2019-03-30T06:53:00.857Z,13.00
2019-03-30T06:55:30.133Z,11.05
2019-03-30T06:57:59.322Z,12.13
2019-03-30T07:00:37.924Z,13.53
2019-03-30T07:03:07.813Z,12.35
2019-03-30T07:05:39.861Z,12.65
2019-03-30T07:08:17.168Z,16.42
2019-03-30T07:10:46.559Z,15.32
2019-03-30T07:13:15.986Z,13.65
2019-03-30T07:15:47.242Z,13.95
2019-03-30T07:18:16.774Z,13.32
2019-03-30T07:20:46.062Z,14.33
2019-03-30T07:23:15.336Z,13.85
2019-03-30T07:25:44.582Z,14.28
2019-03-30T07:28:13.821Z,13.13
2019-03-30T07:30:43.029Z,13.70
2019-03-30T07:33:12.206Z,15.05
2019-03-30T07:35:41.397Z,14.23
2019-03-30T07:38:10.665Z,14.60
2019-03-30T07:40:39.945Z,13.70
2019-03-30T07:43:09.217Z,14.73
2019-03-30T07:45:38.560Z,13.80
2019-03-30T07:48:07.717Z,14.33
2019-03-30T07:50:36.998Z,13.53
2019-03-30T07:53:06.219Z,14.03
2019-03-30T07:55:35.507Z,13.40
2019-03-30T07:58:04.807Z,14.27
2019-03-30T08:00:33.944Z,14.60
2019-03-30T08:03:03.102Z,14.57
2019-03-30T08:05:32.582Z,13.53
2019-03-30T08:08:01.837Z,11.93
2019-03-30T08:10:31.112Z,13.10
2019-03-30T08:13:00.766Z,13.60
2019-03-30T08:15:30.008Z,12.50
2019-03-30T08:17:59.210Z,13.37
2019-03-30T08:20:28.378Z,13.87
2019-03-30T08:22:59.050Z,13.83
2019-03-30T08:25:28.210Z,13.27
2019-03-30T08:27:57.420Z,12.63
2019-03-30T08:30:26.689Z,12.87
2019-03-30T08:32:55.904Z,13.20
2019-03-30T08:35:25.150Z,15.00
2019-03-30T08:37:54.335Z,12.60
2019-03-30T08:40:24.711Z,12.97
2019-03-30T08:42:54.084Z,15.90
2019-03-30T08:45:25.319Z,15.40
2019-03-30T08:47:54.643Z,17.07
2019-03-30T08:50:29.522Z,16.17
2019-03-30T08:52:58.726Z,18.00
2019-03-30T08:55:28.005Z,17.03
2019-03-30T08:58:02.263Z,15.80
2019-03-30T09:00:39.520Z,16.23
2019-03-30T09:03:09.026Z,15.63
2019-03-30T09:05:38.249Z,17.80
2019-03-30T09:08:07.471Z,17.07
2019-03-30T09:10:36.829Z,16.37
2019-03-30T09:13:06.093Z,17.10
2019-03-30T09:15:35.408Z,15.97
2019-03-30T09:18:04.967Z,14.90
2019-03-30T09:20:34.473Z,13.43
2019-03-30T09:23:03.790Z,14.30
2019-03-30T09:28:31.606Z,14.13
2019-03-30T09:31:01.100Z,15.90
2019-03-30T09:33:30.314Z,13.13
2019-03-30T09:35:59.498Z,13.90
2019-03-30T09:38:28.765Z,14.10
2019-03-30T09:40:57.927Z,14.80
2019-03-30T09:43:27.245Z,13.20
2019-03-30T09:45:56.427Z,13.53
2019-03-30T09:48:25.793Z,15.17
2019-03-30T09:50:54.990Z,14.17
2019-03-30T09:53:24.193Z,13.30
2019-03-30T09:55:55.440Z,12.90
2019-03-30T09:58:24.690Z,13.90
2019-03-30T10:00:53.884Z,14.57
2019-03-30T10:03:23.073Z,14.97
2019-03-30T10:05:52.288Z,14.73
2019-03-30T10:08:21.461Z,13.87
2019-03-30T10:10:50.672Z,13.10
2019-03-30T10:13:19.897Z,13.53
2019-03-30T10:15:49.069Z,14.07
2019-03-30T10:18:18.282Z,13.50
2019-03-30T10:20:47.533Z,14.10
2019-03-30T10:23:16.721Z,15.60
2019-03-30T10:25:45.981Z,14.67
2019-03-30T10:28:15.170Z,14.13
2019-03-30T10:30:44.435Z,13.97
2019-03-30T10:33:13.686Z,13.90
2019-03-30T10:35:42.919Z,13.43
2019-03-30T10:38:12.097Z,14.10
2019-03-30T10:40:41.314Z,12.57
2019-03-30T10:43:10.561Z,12.90
2019-03-30T10:45:39.814Z,12.57
2019-03-30T10:48:09.071Z,12.23
2019-03-30T10:50:38.292Z,14.03
2019-03-30T10:53:07.636Z,13.90
2019-03-30T10:55:37.025Z,12.03
2019-03-30T10:58:06.136Z,11.73
2019-03-30T11:00:36.980Z,12.67
2019-03-30T11:03:06.148Z,12.57
2019-03-30T11:05:35.454Z,11.63
2019-03-30T11:08:04.721Z,12.20
2019-03-30T11:10:33.989Z,12.37
2019-03-30T11:13:03.175Z,11.07
2019-03-30T11:15:34.311Z,11.10
2019-03-30T11:18:03.671Z,11.37
2019-03-30T11:20:33.078Z,11.90
2019-03-30T11:23:02.409Z,12.50
2019-03-30T11:25:31.569Z,11.63
2019-03-30T11:28:00.882Z,11.00
2019-03-30T11:30:30.555Z,11.47
2019-03-30T11:32:59.754Z,9.90
2019-03-30T11:35:28.980Z,11.80
2019-03-30T11:37:58.212Z,11.07
2019-03-30T11:40:27.521Z,11.30
2019-03-30T11:42:56.697Z,12.67
2019-03-30T11:45:26.197Z,10.90
2019-03-30T11:47:55.436Z,13.27
2019-03-30T11:50:24.669Z,13.77
2019-03-30T11:52:53.868Z,12.47
2019-03-30T11:55:23.186Z,12.60
2019-03-30T11:57:52.396Z,12.43
2019-03-30T12:00:21.749Z,13.77
2019-03-30T12:02:50.952Z,12.20
2019-03-30T12:05:20.265Z,11.70
2019-03-30T12:07:49.533Z,11.73
2019-03-30T12:10:20.890Z,10.83
2019-03-30T12:12:50.190Z,12.07
2019-03-30T12:15:19.525Z,13.10
2019-03-30T12:17:48.751Z,12.33
2019-03-30T12:20:18.121Z,13.10
2019-03-30T12:22:47.287Z,13.47
2019-03-30T12:25:16.607Z,13.23
2019-03-30T12:27:45.788Z,13.50
2019-03-30T12:30:15.202Z,12.33
2019-03-30T12:32:44.393Z,12.20
2019-03-30T12:35:13.687Z,13.27
2019-03-30T12:37:42.881Z,15.13
2019-03-30T12:40:12.220Z,14.70
2019-03-30T12:42:42.441Z,14.63
2019-03-30T12:45:12.134Z,12.90
2019-03-30T12:47:41.309Z,13.90
2019-03-30T12:50:11.350Z,12.50
2019-03-30T12:52:40.593Z,11.93
2019-03-30T12:55:20.963Z,12.87
2019-03-30T12:57:57.394Z,11.97
2019-03-30T13:00:29.663Z,12.40
2019-03-30T13:03:04.347Z,11.47
2019-03-30T13:05:34.928Z,12.67
2019-03-30T13:08:09.393Z,10.00
2019-03-30T13:10:40.151Z,11.33
2019-03-30T13:13:13.240Z,12.03
2019-03-30T13:15:45.370Z,11.83
2019-03-30T13:18:24.862Z,12.07
2019-03-30T13:20:56.151Z,11.10
2019-03-30T13:23:26.784Z,12.40
2019-03-30T13:26:04.018Z,10.70
2019-03-30T13:28:30.870Z,11.80
2019-03-30T13:31:05.409Z,11.13
2019-03-30T13:33:38.106Z,12.20
2019-03-30T13:36:28.899Z,11.30
2019-03-30T13:39:03.616Z,8.50
2019-03-30T13:41:52.456Z,9.13
2019-03-30T13:44:29.544Z,9.27
2019-03-30T13:47:00.128Z,10.27
2019-03-30T13:49:34.571Z,9.40
2019-03-30T13:52:04.765Z,9.53
2019-03-30T13:54:38.841Z,8.30
2019-03-30T13:57:11.704Z,7.57
2019-03-30T13:59:42.243Z,7.30
2019-03-30T14:02:19.271Z,8.13
2019-03-30T14:04:53.279Z,7.80
2019-03-30T14:07:30.281Z,7.50
2019-03-30T14:10:03.754Z,7.67
2019-03-30T14:12:39.678Z,8.80
2019-03-30T14:15:10.947Z,9.20
2019-03-30T14:17:45.692Z,8.60
2019-03-30T14:23:26.809Z,8.30
2019-03-30T14:25:58.657Z,9.03
2019-03-30T14:28:33.341Z,9.00
2019-03-30T14:31:04.338Z,8.30
2019-03-30T14:33:38.492Z,7.73
2019-03-30T14:36:08.808Z,7.73
2019-03-30T14:38:39.282Z,6.00
2019-03-30T14:41:17.757Z,8.07
2019-03-30T14:43:54.359Z,7.60
2019-03-30T14:46:45.113Z,7.40
2019-03-30T14:49:20.673Z,7.27
2019-03-30T14:51:51.728Z,7.30
2019-03-30T14:54:22.638Z,6.37
2019-03-30T14:56:53.758Z,6.30
2019-03-30T14:59:30.012Z,7.37
2019-03-30T15:02:01.208Z,7.33
2019-03-30T15:04:41.808Z,7.20
2019-03-30T15:07:13.210Z,6.70
2019-03-30T15:09:44.505Z,6.60
2019-03-30T15:12:23.319Z,6.67
2019-03-30T15:14:54.799Z,7.53
2019-03-30T15:17:26.572Z,5.23
2019-03-30T15:19:59.953Z,5.23
2019-03-30T15:22:32.361Z,6.30
2019-03-30T15:25:02.561Z,6.57
2019-03-30T15:27:32.426Z,7.03
2019-03-30T15:30:01.674Z,6.73
2019-03-30T15:32:30.866Z,6.50
2019-03-30T15:35:00.031Z,7.10
2019-03-30T15:37:29.220Z,6.10
2019-03-30T15:40:08.188Z,7.10
2019-03-30T15:42:40.139Z,6.70
2019-03-30T15:45:11.540Z,6.97
2019-03-30T15:47:40.849Z,7.37
2019-03-30T15:50:10.488Z,6.37
2019-03-30T15:52:39.699Z,7.90
2019-03-30T15:55:09.024Z,7.03
2019-03-30T15:57:38.331Z,7.37
2019-03-30T16:00:08.535Z,6.30
2019-03-30T16:02:37.698Z,6.87
2019-03-30T16:05:07.180Z,5.87
2019-03-30T16:07:36.446Z,4.60
2019-03-30T16:10:05.858Z,5.43
2019-03-30T16:12:42.439Z,4.80
2019-03-30T16:15:11.878Z,4.73
2019-03-30T16:17:41.041Z,5.40
2019-03-30T16:20:10.295Z,5.00
2019-03-30T16:22:39.543Z,4.87
2019-03-30T16:25:08.859Z,3.50
2019-03-30T16:27:39.405Z,3.20
2019-03-30T16:30:09.388Z,3.60
2019-03-30T16:32:38.537Z,3.07
2019-03-30T16:35:07.705Z,2.63
2019-03-30T16:37:36.902Z,2.40
2019-03-30T16:40:07.030Z,2.47
2019-03-30T16:42:36.471Z,2.60
2019-03-30T16:45:06.134Z,2.40
2019-03-30T16:47:35.348Z,3.23
2019-03-30T16:50:05.210Z,3.10
2019-03-30T16:52:34.880Z,2.87
2019-03-30T16:55:04.134Z,3.50
2019-03-30T16:57:43.305Z,4.40
2019-03-30T17:00:06.793Z,3.93
2019-03-30T17:02:35.960Z,3.50
2019-03-30T17:05:05.769Z,3.00
2019-03-30T17:07:35.249Z,4.50
2019-03-30T17:10:05.227Z,4.30
2019-03-30T17:12:34.477Z,12.50
2019-03-30T17:15:03.894Z,5.47
2019-03-30T17:17:33.147Z,4.80
2019-03-30T17:20:02.309Z,5.63
2019-03-30T17:22:31.480Z,5.13
2019-03-30T17:25:00.661Z,5.57
2019-03-30T17:27:29.889Z,5.67
2019-03-30T17:29:59.102Z,5.07
2019-03-30T17:32:28.375Z,4.93
2019-03-30T17:34:57.536Z,5.00
2019-03-30T17:37:26.807Z,9.43
2019-03-30T17:39:56.805Z,6.50
2019-03-30T17:42:25.954Z,6.80
2019-03-30T17:44:55.146Z,6.70
2019-03-30T17:47:43.518Z,27.20
2019-03-30T17:50:13.213Z,6.83
2019-03-30T17:52:42.557Z,6.00
2019-03-30T17:55:12.054Z,6.80
2019-03-30T17:57:41.215Z,9.50
2019-03-30T18:00:14.190Z,15.93
2019-03-30T18:02:43.413Z,23.43
2019-03-30T18:05:12.683Z,25.63
2019-03-30T18:07:41.929Z,27.97
2019-03-30T18:10:11.503Z,26.57
2019-03-30T18:12:40.794Z,27.50
2019-03-30T18:15:12.146Z,44.00
2019-03-30T18:17:41.364Z,45.40
2019-03-30T18:20:11.716Z,48.20
2019-03-30T18:22:41.013Z,48.37
2019-03-30T18:25:10.359Z,40.77
2019-03-30T18:27:39.551Z,37.63
2019-03-30T18:30:09.320Z,42.87
2019-03-30T18:32:38.613Z,19.73
2019-03-30T18:35:07.955Z,15.17
2019-03-30T18:37:37.579Z,19.73
2019-03-30T18:40:07.804Z,14.17
2019-03-30T18:42:37.049Z,13.10
2019-03-30T18:45:07.415Z,12.13
2019-03-30T18:47:36.768Z,11.30
2019-03-30T18:50:06.645Z,13.77
2019-03-30T18:52:36.392Z,13.70
2019-03-30T18:55:05.745Z,14.77
2019-03-30T18:57:35.031Z,14.10
2019-03-30T19:00:04.643Z,16.70
2019-03-30T19:02:33.820Z,17.13
2019-03-30T19:05:02.992Z,17.33
2019-03-30T19:07:32.310Z,15.33
2019-03-30T19:10:03.292Z,14.20
2019-03-30T19:12:33.707Z,14.07
2019-03-30T19:15:18.215Z,13.97
2019-03-30T19:17:47.877Z,13.53
2019-03-30T19:20:22.892Z,13.00
2019-03-30T19:22:55.329Z,15.00
2019-03-30T19:25:29.819Z,16.37
2019-03-30T19:28:04.475Z,25.70
2019-03-30T19:30:38.055Z,29.13
2019-03-30T19:33:11.993Z,32.80
2019-03-30T19:35:46.629Z,34.77
2019-03-30T19:38:17.450Z,43.23
2019-03-30T19:40:51.268Z,50.70
2019-03-30T19:43:22.595Z,52.30
2019-03-30T19:45:55.593Z,47.70
2019-03-30T19:48:30.192Z,54.23
2019-03-30T19:51:07.339Z,55.30
2019-03-30T19:53:45.742Z,50.07
2019-03-30T19:56:16.145Z,33.93
2019-03-30T19:58:47.706Z,28.57
2019-03-30T20:01:20.236Z,26.03
2019-03-30T20:03:54.071Z,18.87
2019-03-30T20:06:25.246Z,20.90
2019-03-30T20:09:20.725Z,19.57
2019-03-30T20:11:51.785Z,12.80
2019-03-30T20:14:21.768Z,14.60
2019-03-30T20:17:13.814Z,15.10
2019-03-30T20:19:59.449Z,16.33
2019-03-30T20:22:50.740Z,17.53
2019-03-30T20:25:25.799Z,21.27
2019-03-30T20:27:56.102Z,20.70
2019-03-30T20:30:42.587Z,20.37
2019-03-30T20:33:15.020Z,19.97
2019-03-30T20:35:51.405Z,20.90
2019-03-30T20:38:21.144Z,14.33
2019-03-30T20:40:51.197Z,15.70
2019-03-30T20:43:31.478Z,15.70
2019-03-30T20:46:08.190Z,14.97
2019-03-30T20:48:38.663Z,16.70
2019-03-30T20:51:42.226Z,11.77
2019-03-30T20:54:17.015Z,9.60
2019-03-30T20:57:01.009Z,8.50
2019-03-30T20:59:40.138Z,8.07
2019-03-30T21:02:11.943Z,7.00
2019-03-30T21:04:43.730Z,7.43
2019-03-30T21:07:17.191Z,7.90
2019-03-30T21:09:47.974Z,8.47
2019-03-30T21:12:20.957Z,8.57
2019-03-30T21:14:50.688Z,8.80
2019-03-30T21:17:31.161Z,7.77
2019-03-30T21:20:05.435Z,6.30
2019-03-30T21:22:36.827Z,5.83
2019-03-30T21:25:11.612Z,5.80
2019-03-30T21:27:43.248Z,5.77
2019-03-30T21:30:14.110Z,5.43
2019-03-30T21:32:48.414Z,5.67
2019-03-30T21:35:33.600Z,5.43
2019-03-30T21:38:24.009Z,5.20
2019-03-30T21:40:57.640Z,5.70
2019-03-30T21:43:30.806Z,5.63
2019-03-30T21:46:02.408Z,5.87
2019-03-30T21:48:40.895Z,6.37
2019-03-30T21:51:15.621Z,6.50
2019-03-30T21:53:46.954Z,5.50
2019-03-30T21:56:22.739Z,5.40
2019-03-30T21:58:54.553Z,5.47
2019-03-30T22:04:24.988Z,5.80
2019-03-30T22:07:00.098Z,5.63
2019-03-30T22:09:50.398Z,5.13
2019-03-30T22:12:26.696Z,5.30
2019-03-30T22:14:57.618Z,5.07
2019-03-30T22:17:30.190Z,6.23
2019-03-30T22:20:07.131Z,6.27
2019-03-30T22:22:39.309Z,6.10
2019-03-30T22:25:10.799Z,5.87
2019-03-30T22:27:50.975Z,5.43
2019-03-30T22:30:24.997Z,5.77
2019-03-30T22:32:54.309Z,5.23
2019-03-30T22:35:27.552Z,5.20
2019-03-30T22:37:58.004Z,5.53
2019-03-30T22:40:27.421Z,6.17
2019-03-30T22:42:59.547Z,4.80
2019-03-30T22:45:31.912Z,5.13
2019-03-30T22:48:16.083Z,5.23
2019-03-30T22:50:46.651Z,5.80
2019-03-30T22:53:21.143Z,5.33
2019-03-30T22:56:17.365Z,4.90
2019-03-30T22:58:49.164Z,5.67
2019-03-30T23:01:23.549Z,5.13
2019-03-30T23:03:56.539Z,4.90
2019-03-30T23:06:27.514Z,5.33
2019-03-30T23:09:01.066Z,5.33
2019-03-30T23:11:34.410Z,5.10
2019-03-30T23:14:05.209Z,5.27
2019-03-30T23:16:34.665Z,4.10
2019-03-30T23:19:09.645Z,5.23
2019-03-30T23:22:03.562Z,4.50
2019-03-30T23:24:45.625Z,4.73
2019-03-30T23:27:23.051Z,4.67
2019-03-30T23:29:58.660Z,4.83
2019-03-30T23:32:33.748Z,5.83
2019-03-30T23:35:06.214Z,5.50
2019-03-30T23:37:42.919Z,5.27
2019-03-30T23:40:12.265Z,5.70
2019-03-30T23:42:47.008Z,6.73
2019-03-30T23:45:26.040Z,7.30
2019-03-30T23:47:56.021Z,7.93
2019-03-30T23:50:26.390Z,7.60
2019-03-30T23:52:59.051Z,7.60
2019-03-30T23:55:30.268Z,6.93
2019-03-30T23:58:05.113Z,6.70
